Time;durP1;ratioP1;P1;durP2;ratioP2;P2;SDS_P1;SDS_P2;PMS_P1;PMS_P2;Temp;Humidity;BMP_temperature;BMP_pressure;BME280_temperature;BME280_humidity;BME280_pressure;Samples;Min_cycle;Max_cycle;Signal;HPM_P1;HPM_P2
2022/03/21 00:00:27;;;;;;;16.17;10.80;;;;;;;;;;4997373;28;20219;-60
2022/03/21 00:02:57;;;;;;;14.67;10.93;;;;;;;;;;4995718;28;20602;-61
2022/03/21 00:05:25;;;;;;;13.20;10.27;;;;;;;;;;4999817;28;20315;-61
2022/03/21 00:07:52;;;;;;;14.57;10.60;;;;;;;;;;4977130;28;20227;-59
2022/03/21 00:10:20;;;;;;;15.07;10.37;;;;;;;;;;4976234;28;20876;-60
2022/03/21 00:12:49;;;;;;;14.73;9.83;;;;;;;;;;5001527;28;20215;-61
2022/03/21 00:15:16;;;;;;;12.83;10.03;;;;;;;;;;4991100;28;20207;-59
2022/03/21 00:17:44;;;;;;;16.60;10.93;;;;;;;;;;5002208;28;20211;-64
2022/03/21 00:20:13;;;;;;;15.37;11.17;;;;;;;;;;4996259;28;20606;-61
2022/03/21 00:22:40;;;;;;;13.23;10.63;;;;;;;;;;4982380;28;20204;-62
2022/03/21 00:25:09;;;;;;;16.00;11.53;;;;;;;;;;4977176;28;20192;-62
2022/03/21 00:27:36;;;;;;;17.57;11.70;;;;;;;;;;4985665;28;20234;-62
2022/03/21 00:30:04;;;;;;;13.80;10.83;;;;;;;;;;5000700;28;20585;-61
2022/03/21 00:32:32;;;;;;;16.10;11.67;;;;;;;;;;4990933;28;20612;-62
2022/03/21 00:34:59;;;;;;;17.80;11.60;;;;;;;;;;4996922;28;20258;-60
2022/03/21 00:37:27;;;;;;;18.00;12.00;;;;;;;;;;4967633;28;20586;-60
2022/03/21 00:39:54;;;;;;;16.37;11.70;;;;;;;;;;4988373;28;20691;-59
2022/03/21 00:42:22;;;;;;;18.27;11.90;;;;;;;;;;4983868;28;20538;-60
2022/03/21 00:44:49;;;;;;;17.10;12.47;;;;;;;;;;4995726;28;20212;-62
2022/03/21 00:47:18;;;;;;;16.63;12.40;;;;;;;;;;4987377;28;20212;-61
2022/03/21 00:49:46;;;;;;;18.33;12.83;;;;;;;;;;4976337;28;20223;-61
2022/03/21 00:52:14;;;;;;;21.13;13.23;;;;;;;;;;4978034;28;20199;-61
2022/03/21 00:54:41;;;;;;;20.17;14.17;;;;;;;;;;4980849;28;20662;-62
2022/03/21 00:57:09;;;;;;;21.27;12.97;;;;;;;;;;4982241;28;20211;-61
2022/03/21 00:59:38;;;;;;;18.60;13.23;;;;;;;;;;4983881;28;20228;-60
2022/03/21 01:02:12;;;;;;;19.03;12.90;;;;;;;;;;4971492;28;21657;-62
2022/03/21 01:04:40;;;;;;;19.53;12.87;;;;;;;;;;4999358;28;20231;-60
2022/03/21 01:07:07;;;;;;;19.13;13.60;;;;;;;;;;4994942;28;20216;-61
2022/03/21 01:09:35;;;;;;;18.83;13.77;;;;;;;;;;4988118;28;20266;-61
2022/03/21 01:12:03;;;;;;;19.67;13.00;;;;;;;;;;5001391;28;20306;-61
2022/03/21 01:14:31;;;;;;;18.43;12.97;;;;;;;;;;4980337;28;20211;-60
2022/03/21 01:16:59;;;;;;;16.47;12.13;;;;;;;;;;5001045;28;20211;-61
2022/03/21 01:19:30;;;;;;;20.63;13.50;;;;;;;;;;4977435;28;21420;-62
2022/03/21 01:21:58;;;;;;;18.83;12.17;;;;;;;;;;4983688;28;20207;-61
2022/03/21 01:24:26;;;;;;;19.90;13.30;;;;;;;;;;4997491;28;20261;-60
2022/03/21 01:26:53;;;;;;;16.60;12.60;;;;;;;;;;5002039;28;20262;-60
2022/03/21 01:29:20;;;;;;;20.77;13.43;;;;;;;;;;4977760;28;20223;-60
2022/03/21 01:31:48;;;;;;;37.40;21.13;;;;;;;;;;5004312;28;20580;-59
2022/03/21 01:34:15;;;;;;;45.53;23.50;;;;;;;;;;4999128;28;20207;-59
2022/03/21 01:36:43;;;;;;;46.43;24.40;;;;;;;;;;4989889;28;20237;-59
2022/03/21 01:39:10;;;;;;;40.00;22.17;;;;;;;;;;4992746;28;20714;-59
2022/03/21 01:41:37;;;;;;;35.47;18.87;;;;;;;;;;4991623;28;20203;-63
2022/03/21 01:44:06;;;;;;;30.53;18.07;;;;;;;;;;4988291;28;20204;-61
2022/03/21 01:46:34;;;;;;;24.30;15.83;;;;;;;;;;4978000;28;20690;-62
2022/03/21 01:49:03;;;;;;;20.60;13.50;;;;;;;;;;4996626;28;20231;-62
2022/03/21 01:51:31;;;;;;;26.33;16.10;;;;;;;;;;4985941;28;20210;-60
2022/03/21 01:56:47;;;;;;;22.87;14.70;;;;;;;;;;4994389;28;20239;-62
2022/03/21 01:59:15;;;;;;;32.93;19.30;;;;;;;;;;4999612;28;20248;-62
2022/03/21 02:01:43;;;;;;;25.07;16.53;;;;;;;;;;4990740;28;20608;-63
2022/03/21 02:04:10;;;;;;;31.93;17.57;;;;;;;;;;4994918;28;20215;-62
2022/03/21 02:06:38;;;;;;;25.03;16.27;;;;;;;;;;4982065;28;20202;-61
2022/03/21 02:09:09;;;;;;;25.57;16.30;;;;;;;;;;4972660;28;21433;-59
2022/03/21 02:11:37;;;;;;;25.07;17.10;;;;;;;;;;4990263;28;20343;-61
2022/03/21 02:14:06;;;;;;;29.33;17.27;;;;;;;;;;4994587;28;20231;-61
2022/03/21 02:16:34;;;;;;;25.63;15.70;;;;;;;;;;4983360;28;21317;-61
2022/03/21 02:19:07;;;;;;;25.67;15.70;;;;;;;;;;4988478;28;20670;-60
2022/03/21 02:21:38;;;;;;;21.40;13.07;;;;;;;;;;4978798;28;20199;-62
2022/03/21 02:24:08;;;;;;;17.73;12.20;;;;;;;;;;4971590;28;20215;-60
2022/03/21 02:26:36;;;;;;;19.37;13.30;;;;;;;;;;4991705;28;20256;-60
2022/03/21 02:29:04;;;;;;;19.10;13.27;;;;;;;;;;4980575;28;20332;-64
2022/03/21 02:31:32;;;;;;;19.70;12.60;;;;;;;;;;4978105;28;20268;-61
2022/03/21 02:34:00;;;;;;;22.27;14.23;;;;;;;;;;4993981;28;20226;-62
2022/03/21 02:36:28;;;;;;;22.97;14.20;;;;;;;;;;4977052;28;20227;-62
2022/03/21 02:38:57;;;;;;;24.93;14.97;;;;;;;;;;4980242;28;20233;-62
2022/03/21 02:41:24;;;;;;;24.97;14.40;;;;;;;;;;4965074;28;20215;-62
2022/03/21 02:43:56;;;;;;;21.97;13.53;;;;;;;;;;4990684;28;20233;-62
2022/03/21 02:46:23;;;;;;;23.67;14.83;;;;;;;;;;4984907;28;20215;-63
2022/03/21 02:48:52;;;;;;;21.73;13.67;;;;;;;;;;5005532;28;20228;-62
2022/03/21 02:51:20;;;;;;;22.17;14.37;;;;;;;;;;4986138;28;20587;-62
2022/03/21 02:53:49;;;;;;;21.97;14.10;;;;;;;;;;4997660;28;20216;-62
2022/03/21 02:56:17;;;;;;;22.53;14.57;;;;;;;;;;4999399;28;20263;-61
2022/03/21 02:58:45;;;;;;;22.87;14.37;;;;;;;;;;4987774;28;20245;-61
2022/03/21 03:01:14;;;;;;;22.87;13.93;;;;;;;;;;4993622;28;20202;-61
2022/03/21 03:03:42;;;;;;;22.93;14.50;;;;;;;;;;4988202;28;20205;-60
2022/03/21 03:06:10;;;;;;;23.90;15.03;;;;;;;;;;4967483;28;20633;-60
2022/03/21 03:08:38;;;;;;;23.00;14.47;;;;;;;;;;4966206;28;20200;-60
2022/03/21 03:11:06;;;;;;;26.77;15.20;;;;;;;;;;4985358;28;20211;-60
2022/03/21 03:13:33;;;;;;;23.13;14.60;;;;;;;;;;4984857;28;20254;-61
2022/03/21 03:16:01;;;;;;;25.63;14.93;;;;;;;;;;4981672;28;20794;-60
2022/03/21 03:18:29;;;;;;;22.77;14.80;;;;;;;;;;4993668;28;20203;-61
2022/03/21 03:20:57;;;;;;;23.40;14.33;;;;;;;;;;4989838;28;20220;-60
2022/03/21 03:23:25;;;;;;;23.90;14.47;;;;;;;;;;4989702;28;20815;-63
2022/03/21 03:25:58;;;;;;;21.53;14.13;;;;;;;;;;4988122;28;20925;-60
2022/03/21 03:28:26;;;;;;;24.70;14.03;;;;;;;;;;4990085;28;20213;-59
2022/03/21 03:31:11;;;;;;;22.73;14.37;;;;;;;;;;4967379;28;20308;-61
2022/03/21 03:33:39;;;;;;;21.73;14.07;;;;;;;;;;4985752;28;20212;-59
2022/03/21 03:36:07;;;;;;;19.50;13.07;;;;;;;;;;4984341;28;20212;-62
2022/03/21 03:38:34;;;;;;;18.47;13.40;;;;;;;;;;4984151;28;20214;-62
2022/03/21 03:41:02;;;;;;;20.20;14.23;;;;;;;;;;4976389;28;20222;-60
2022/03/21 03:43:32;;;;;;;20.47;13.30;;;;;;;;;;4971697;28;20437;-62
2022/03/21 03:45:59;;;;;;;19.57;13.53;;;;;;;;;;4992427;28;20940;-60
2022/03/21 03:48:28;;;;;;;22.63;15.27;;;;;;;;;;4990429;28;20286;-62
2022/03/21 03:50:55;;;;;;;22.50;13.77;;;;;;;;;;4988326;28;20228;-62
2022/03/21 03:53:23;;;;;;;22.07;13.67;;;;;;;;;;4986939;28;20231;-60
2022/03/21 03:55:51;;;;;;;22.43;13.73;;;;;;;;;;4996700;28;20217;-61
2022/03/21 03:58:18;;;;;;;22.00;13.63;;;;;;;;;;4978963;28;20208;-61
2022/03/21 04:00:46;;;;;;;21.20;14.10;;;;;;;;;;4997015;28;20232;-62
2022/03/21 04:06:05;;;;;;;23.93;13.17;;;;;;;;;;4994928;28;20290;-61
2022/03/21 04:08:32;;;;;;;21.20;14.40;;;;;;;;;;4987622;28;20216;-61
2022/03/21 04:11:00;;;;;;;23.10;14.60;;;;;;;;;;4977145;28;20853;-60
2022/03/21 04:13:27;;;;;;;21.50;13.63;;;;;;;;;;4970762;28;20215;-59
2022/03/21 04:15:54;;;;;;;19.57;13.50;;;;;;;;;;4986445;28;20207;-61
2022/03/21 04:18:22;;;;;;;21.03;13.50;;;;;;;;;;4989953;28;20674;-61
2022/03/21 04:21:09;;;;;;;21.27;13.23;;;;;;;;;;4987228;28;20292;-61
2022/03/21 04:23:37;;;;;;;17.73;12.40;;;;;;;;;;4984191;28;20218;-62
2022/03/21 04:26:04;;;;;;;16.60;11.60;;;;;;;;;;4979206;28;20211;-61
2022/03/21 04:28:32;;;;;;;17.83;12.33;;;;;;;;;;4988152;28;20713;-60
2022/03/21 04:30:59;;;;;;;20.93;12.77;;;;;;;;;;4988672;28;20251;-61
2022/03/21 04:33:26;;;;;;;19.10;13.67;;;;;;;;;;4971648;28;20230;-60
2022/03/21 04:35:54;;;;;;;19.60;11.87;;;;;;;;;;4980834;28;20661;-61
2022/03/21 04:38:22;;;;;;;19.37;13.30;;;;;;;;;;4979499;28;20212;-60
2022/03/21 04:40:50;;;;;;;21.37;13.33;;;;;;;;;;4973338;28;20843;-59
2022/03/21 04:43:19;;;;;;;19.13;12.57;;;;;;;;;;4983621;28;20621;-62
2022/03/21 04:45:47;;;;;;;21.90;13.27;;;;;;;;;;4976371;28;20215;-61
2022/03/21 04:48:15;;;;;;;15.77;11.53;;;;;;;;;;4963217;28;20208;-61
2022/03/21 04:50:43;;;;;;;16.87;11.83;;;;;;;;;;4968364;28;20868;-61
2022/03/21 04:53:11;;;;;;;18.10;12.07;;;;;;;;;;5000589;28;20210;-60
2022/03/21 04:55:40;;;;;;;15.23;11.07;;;;;;;;;;4982470;28;20203;-60
2022/03/21 04:58:07;;;;;;;21.40;13.57;;;;;;;;;;4975875;28;20208;-60
2022/03/21 05:00:35;;;;;;;22.00;13.70;;;;;;;;;;4979502;28;20725;-60
2022/03/21 05:03:07;;;;;;;21.27;13.63;;;;;;;;;;4998795;28;21157;-60
2022/03/21 05:05:41;;;;;;;24.80;15.50;;;;;;;;;;4987117;28;20203;-61
2022/03/21 05:08:09;;;;;;;28.37;17.93;;;;;;;;;;4997108;28;20208;-61
2022/03/21 05:10:36;;;;;;;28.40;17.93;;;;;;;;;;4986338;28;20235;-60
2022/03/21 05:13:04;;;;;;;26.60;17.37;;;;;;;;;;4983757;28;20303;-61
2022/03/21 05:15:32;;;;;;;25.40;17.47;;;;;;;;;;4983769;28;20224;-61
2022/03/21 05:17:59;;;;;;;26.03;16.77;;;;;;;;;;4975976;28;20204;-59
2022/03/21 05:20:27;;;;;;;29.47;17.70;;;;;;;;;;4958773;28;20330;-61
2022/03/21 05:31:13;;;;;;;44.87;25.07;;;;;;;;;;4983483;28;20211;-60
2022/03/21 05:36:27;;;;;;;46.53;25.37;;;;;;;;;;4997417;28;20207;-60
2022/03/21 05:38:55;;;;;;;46.30;25.30;;;;;;;;;;4996115;28;20304;-61
2022/03/21 05:41:22;;;;;;;43.43;23.40;;;;;;;;;;4979959;28;20227;-62
2022/03/21 05:43:49;;;;;;;34.70;20.10;;;;;;;;;;5003478;28;20215;-60
2022/03/21 05:46:17;;;;;;;34.70;19.33;;;;;;;;;;4995138;28;20211;-61
2022/03/21 05:48:51;;;;;;;30.07;16.27;;;;;;;;;;5006412;28;20222;-60
2022/03/21 05:51:20;;;;;;;27.90;14.47;;;;;;;;;;4996383;28;20830;-62
2022/03/21 05:53:48;;;;;;;28.20;13.90;;;;;;;;;;5003809;28;20207;-63
2022/03/21 05:56:16;;;;;;;24.43;13.90;;;;;;;;;;5001554;28;20256;-64
2022/03/21 05:58:43;;;;;;;24.60;14.13;;;;;;;;;;4976492;28;20216;-61
2022/03/21 06:01:11;;;;;;;29.50;14.40;;;;;;;;;;5002481;28;20216;-60
2022/03/21 06:03:40;;;;;;;34.93;14.10;;;;;;;;;;4989621;28;20577;-61
2022/03/21 06:06:09;;;;;;;26.13;13.87;;;;;;;;;;5000008;28;20210;-59
2022/03/21 06:08:37;;;;;;;28.87;15.07;;;;;;;;;;4996542;28;20200;-60
2022/03/21 06:11:04;;;;;;;28.77;14.73;;;;;;;;;;4983688;28;20674;-60
2022/03/21 06:13:33;;;;;;;35.67;19.77;;;;;;;;;;4977763;28;20668;-62
2022/03/21 06:16:03;;;;;;;44.83;20.17;;;;;;;;;;4990538;28;20765;-61
2022/03/21 06:18:34;;;;;;;35.83;20.80;;;;;;;;;;4984268;28;20267;-61
2022/03/21 06:21:02;;;;;;;39.93;20.60;;;;;;;;;;5000442;28;20315;-61
2022/03/21 06:23:30;;;;;;;28.97;17.13;;;;;;;;;;4982386;28;20210;-60
2022/03/21 06:25:58;;;;;;;34.40;18.60;;;;;;;;;;4984160;28;20200;-60
2022/03/21 06:28:28;;;;;;;40.43;20.13;;;;;;;;;;4973779;28;20196;-59
2022/03/21 06:30:56;;;;;;;37.43;19.97;;;;;;;;;;4996907;28;20234;-61
2022/03/21 06:33:28;;;;;;;42.33;21.03;;;;;;;;;;4995406;28;20208;-60
2022/03/21 06:35:56;;;;;;;44.40;20.43;;;;;;;;;;5004517;28;20625;-62
2022/03/21 06:38:24;;;;;;;36.53;20.23;;;;;;;;;;4998996;28;20945;-63
2022/03/21 06:40:51;;;;;;;35.83;19.27;;;;;;;;;;4996087;28;20245;-63
2022/03/21 06:43:22;;;;;;;36.33;20.73;;;;;;;;;;4994700;28;20565;-61
2022/03/21 06:45:51;;;;;;;38.83;18.97;;;;;;;;;;5002133;28;20231;-62
2022/03/21 06:48:20;;;;;;;35.80;17.00;;;;;;;;;;4989370;28;20297;-62
2022/03/21 06:50:48;;;;;;;38.40;18.33;;;;;;;;;;5005140;28;20233;-62
2022/03/21 06:53:17;;;;;;;39.23;17.27;;;;;;;;;;4980491;28;20677;-62
2022/03/21 06:55:44;;;;;;;42.83;18.37;;;;;;;;;;4996918;28;20218;-62
2022/03/21 06:58:13;;;;;;;34.83;17.77;;;;;;;;;;4985830;28;20217;-61
2022/03/21 07:00:41;;;;;;;41.20;18.07;;;;;;;;;;5004312;28;20242;-61
2022/03/21 07:03:11;;;;;;;34.17;18.27;;;;;;;;;;4975145;28;20206;-62
2022/03/21 07:05:39;;;;;;;35.83;18.83;;;;;;;;;;4993611;28;20237;-59
2022/03/21 07:08:06;;;;;;;36.90;18.13;;;;;;;;;;4984481;28;20231;-61
2022/03/21 07:10:34;;;;;;;30.10;17.87;;;;;;;;;;4976964;28;20234;-60
2022/03/21 07:13:05;;;;;;;27.60;14.77;;;;;;;;;;5001875;28;20212;-62
2022/03/21 07:15:32;;;;;;;20.77;13.53;;;;;;;;;;4979199;28;20222;-63
2022/03/21 07:18:00;;;;;;;24.03;14.37;;;;;;;;;;4997281;28;20208;-60
2022/03/21 07:20:28;;;;;;;21.80;13.13;;;;;;;;;;4990331;28;20230;-62
2022/03/21 07:22:56;;;;;;;20.27;13.83;;;;;;;;;;4976320;28;22301;-63
2022/03/21 07:25:23;;;;;;;23.00;13.63;;;;;;;;;;4980224;28;20208;-63
2022/03/21 07:27:54;;;;;;;20.50;14.10;;;;;;;;;;4998173;28;20298;-63
2022/03/21 07:30:21;;;;;;;19.50;13.83;;;;;;;;;;4996619;28;20234;-62
2022/03/21 07:32:49;;;;;;;20.03;13.47;;;;;;;;;;4995877;28;20226;-61
2022/03/21 07:35:16;;;;;;;26.80;15.33;;;;;;;;;;4982811;28;20220;-62
2022/03/21 07:37:46;;;;;;;25.53;14.30;;;;;;;;;;4981957;28;20258;-61
2022/03/21 07:40:14;;;;;;;23.83;14.07;;;;;;;;;;5002760;28;20762;-61
2022/03/21 07:42:42;;;;;;;26.40;14.37;;;;;;;;;;4998776;28;20203;-60
2022/03/21 07:47:57;;;;;;;28.27;13.97;;;;;;;;;;4999269;28;20203;-60
2022/03/21 07:50:24;;;;;;;21.63;12.47;;;;;;;;;;4987005;28;20278;-61
2022/03/21 07:52:52;;;;;;;20.23;12.13;;;;;;;;;;5001147;28;20208;-60
2022/03/21 07:55:19;;;;;;;20.87;12.43;;;;;;;;;;4997148;28;20207;-62
2022/03/21 07:57:47;;;;;;;22.20;12.23;;;;;;;;;;4994345;28;20211;-60
2022/03/21 08:00:15;;;;;;;19.23;11.50;;;;;;;;;;4992468;28;20236;-60
2022/03/21 08:02:43;;;;;;;20.47;11.40;;;;;;;;;;4992781;28;20215;-60
2022/03/21 08:05:13;;;;;;;16.93;12.17;;;;;;;;;;4995335;28;20199;-61
2022/03/21 08:07:41;;;;;;;17.20;10.93;;;;;;;;;;5001879;28;20616;-60
2022/03/21 08:10:08;;;;;;;16.90;11.63;;;;;;;;;;4985363;28;20227;-63
2022/03/21 08:12:38;;;;;;;18.60;12.13;;;;;;;;;;4997801;28;20911;-62
2022/03/21 08:15:06;;;;;;;17.83;11.90;;;;;;;;;;4989745;28;20295;-60
2022/03/21 08:17:46;;;;;;;17.47;11.57;;;;;;;;;;5001418;28;20729;-61
2022/03/21 08:20:13;;;;;;;15.33;10.90;;;;;;;;;;5006610;28;20231;-61
2022/03/21 08:22:43;;;;;;;22.43;11.87;;;;;;;;;;5007342;28;20642;-61
2022/03/21 08:25:10;;;;;;;22.07;11.50;;;;;;;;;;4994547;28;20212;-61
2022/03/21 08:27:38;;;;;;;18.20;11.50;;;;;;;;;;4986185;28;20203;-62
2022/03/21 08:30:07;;;;;;;18.53;11.70;;;;;;;;;;4997098;28;20353;-61
2022/03/21 08:32:39;;;;;;;17.13;11.47;;;;;;;;;;5004921;28;20208;-62
2022/03/21 08:35:06;;;;;;;18.20;11.43;;;;;;;;;;4989133;28;20199;-63
2022/03/21 08:37:34;;;;;;;16.53;11.70;;;;;;;;;;5004576;28;20211;-61
2022/03/21 08:40:01;;;;;;;16.37;11.67;;;;;;;;;;4974724;28;20237;-61
2022/03/21 08:42:29;;;;;;;14.63;11.20;;;;;;;;;;5003578;28;20235;-61
2022/03/21 08:45:01;;;;;;;19.70;11.50;;;;;;;;;;5002093;28;20212;-61
2022/03/21 08:47:29;;;;;;;17.67;11.67;;;;;;;;;;4983813;28;20211;-63
2022/03/21 08:49:57;;;;;;;20.50;11.43;;;;;;;;;;4995189;28;20219;-62
2022/03/21 08:52:24;;;;;;;17.60;11.33;;;;;;;;;;4981990;28;20209;-61
2022/03/21 08:54:52;;;;;;;18.83;11.70;;;;;;;;;;4990807;28;20199;-63
2022/03/21 08:57:19;;;;;;;16.97;10.50;;;;;;;;;;4987951;28;20653;-60
2022/03/21 08:59:47;;;;;;;18.60;12.00;;;;;;;;;;5000914;28;20223;-63
2022/03/21 09:02:17;;;;;;;13.90;11.13;;;;;;;;;;4978729;28;20232;-61
2022/03/21 09:04:45;;;;;;;17.33;12.47;;;;;;;;;;5006823;28;20204;-60
2022/03/21 09:07:15;;;;;;;20.27;12.80;;;;;;;;;;4992251;28;20231;-60
2022/03/21 09:09:43;;;;;;;19.70;12.37;;;;;;;;;;4998039;28;20224;-61
2022/03/21 09:12:11;;;;;;;16.67;11.63;;;;;;;;;;5001300;28;20215;-60
2022/03/21 09:14:38;;;;;;;16.27;11.83;;;;;;;;;;4984097;28;20207;-62
2022/03/21 09:17:06;;;;;;;21.57;12.23;;;;;;;;;;5000728;28;20567;-62
2022/03/21 09:19:33;;;;;;;19.17;12.30;;;;;;;;;;5003067;28;20219;-62
2022/03/21 09:22:01;;;;;;;16.60;12.13;;;;;;;;;;5009217;28;20234;-62
2022/03/21 09:24:29;;;;;;;15.47;10.83;;;;;;;;;;4999308;28;20208;-61
2022/03/21 09:26:57;;;;;;;14.30;10.57;;;;;;;;;;4993449;28;20242;-63
2022/03/21 09:29:24;;;;;;;16.53;10.37;;;;;;;;;;5000920;28;20230;-60
2022/03/21 09:31:52;;;;;;;17.13;11.07;;;;;;;;;;4993471;28;20210;-62
2022/03/21 09:34:20;;;;;;;14.80;11.03;;;;;;;;;;5007856;28;20211;-62
2022/03/21 09:36:48;;;;;;;14.33;10.40;;;;;;;;;;5003726;28;20208;-62
2022/03/21 09:39:15;;;;;;;13.63;10.70;;;;;;;;;;4992838;28;20219;-63
2022/03/21 09:41:44;;;;;;;15.67;10.00;;;;;;;;;;4999425;28;20727;-62
2022/03/21 09:44:12;;;;;;;15.93;9.87;;;;;;;;;;4983345;28;20207;-61
2022/03/21 09:46:44;;;;;;;15.63;10.07;;;;;;;;;;4997965;28;20211;-64
2022/03/21 09:49:14;;;;;;;13.37;9.57;;;;;;;;;;4990219;28;20231;-62
2022/03/21 09:51:43;;;;;;;14.90;10.00;;;;;;;;;;4983978;28;20218;-63
2022/03/21 09:54:10;;;;;;;16.57;9.50;;;;;;;;;;5002735;28;20211;-62
2022/03/21 09:56:38;;;;;;;15.90;9.33;;;;;;;;;;4996548;28;20208;-61
2022/03/21 09:59:05;;;;;;;14.80;9.87;;;;;;;;;;5000799;28;20227;-62
2022/03/21 10:01:35;;;;;;;13.97;9.23;;;;;;;;;;4992106;28;20645;-62
2022/03/21 10:04:03;;;;;;;16.80;9.40;;;;;;;;;;5001392;28;20209;-63
2022/03/21 10:06:35;;;;;;;16.07;10.00;;;;;;;;;;5009639;28;20204;-62
2022/03/21 10:09:09;;;;;;;18.27;8.67;;;;;;;;;;4995235;28;20228;-62
2022/03/21 10:11:39;;;;;;;16.30;10.07;;;;;;;;;;5010456;28;20207;-62
2022/03/21 10:14:25;;;;;;;12.03;8.10;;;;;;;;;;5009951;28;20640;-63
2022/03/21 10:16:52;;;;;;;15.00;7.40;;;;;;;;;;5001463;28;20211;-63
2022/03/21 10:19:20;;;;;;;16.30;7.70;;;;;;;;;;4995671;28;20235;-63
2022/03/21 10:22:00;;;;;;;17.60;7.03;;;;;;;;;;5007452;28;20219;-62
2022/03/21 10:24:33;;;;;;;13.07;6.13;;;;;;;;;;5001047;28;20203;-62
2022/03/21 10:27:01;;;;;;;11.43;5.90;;;;;;;;;;5000258;28;20646;-61
2022/03/21 10:29:28;;;;;;;12.80;6.93;;;;;;;;;;5003553;28;20252;-61
2022/03/21 10:31:56;;;;;;;14.40;6.73;;;;;;;;;;4991531;28;20203;-61
2022/03/21 10:34:30;;;;;;;12.43;7.30;;;;;;;;;;4993305;28;20795;-63
2022/03/21 10:36:57;;;;;;;16.80;8.17;;;;;;;;;;5007248;28;20211;-62
2022/03/21 10:39:25;;;;;;;10.93;7.33;;;;;;;;;;5005994;28;20281;-61
2022/03/21 10:41:57;;;;;;;12.43;8.47;;;;;;;;;;5006833;28;20951;-62
2022/03/21 10:44:25;;;;;;;13.83;8.03;;;;;;;;;;5013882;28;20196;-62
2022/03/21 10:46:54;;;;;;;14.57;7.67;;;;;;;;;;5003155;28;20215;-64
2022/03/21 10:49:28;;;;;;;13.37;8.20;;;;;;;;;;5000765;28;20230;-61
2022/03/21 10:51:56;;;;;;;12.33;8.10;;;;;;;;;;4994054;28;20204;-63
2022/03/21 10:54:45;;;;;;;16.50;8.10;;;;;;;;;;5002131;28;20208;-61
2022/03/21 10:57:26;;;;;;;15.17;7.37;;;;;;;;;;4979866;28;20219;-61
2022/03/21 11:00:13;;;;;;;13.27;7.10;;;;;;;;;;5002933;28;20644;-62
2022/03/21 11:03:06;;;;;;;14.13;6.90;;;;;;;;;;4993708;28;20239;-62
2022/03/21 11:05:36;;;;;;;14.00;7.30;;;;;;;;;;4976962;28;20211;-63
2022/03/21 11:08:04;;;;;;;11.40;7.43;;;;;;;;;;5003458;28;20876;-63
2022/03/21 11:10:32;;;;;;;13.03;7.77;;;;;;;;;;4992794;28;20260;-62
2022/03/21 11:13:03;;;;;;;16.20;8.20;;;;;;;;;;4998422;28;20269;-63
2022/03/21 11:15:31;;;;;;;15.03;7.70;;;;;;;;;;4996255;28;20217;-63
2022/03/21 11:17:59;;;;;;;13.70;8.90;;;;;;;;;;4987325;28;20223;-62
2022/03/21 11:20:29;;;;;;;13.13;8.10;;;;;;;;;;4990792;28;20228;-60
2022/03/21 11:22:57;;;;;;;16.63;9.35;;;;;;;;;;5003323;28;20203;-61
2022/03/21 11:25:25;;;;;;;13.00;9.00;;;;;;;;;;4992200;28;20434;-61
2022/03/21 11:27:59;;;;;;;14.50;8.70;;;;;;;;;;4998918;28;20265;-61
2022/03/21 11:30:45;;;;;;;14.00;8.35;;;;;;;;;;4999894;28;20270;-61
2022/03/21 11:33:28;;;;;;;12.57;9.07;;;;;;;;;;4991619;28;20215;-63
2022/03/21 11:36:22;;;;;;;13.43;8.75;;;;;;;;;;5000339;28;20623;-62
2022/03/21 11:38:49;;;;;;;15.55;8.98;;;;;;;;;;4998590;28;20219;-62
2022/03/21 11:41:25;;;;;;;14.32;8.10;;;;;;;;;;5001445;28;20224;-62
2022/03/21 11:44:05;;;;;;;16.88;8.43;;;;;;;;;;4997064;28;20219;-63
2022/03/21 11:46:34;;;;;;;14.82;8.63;;;;;;;;;;4990213;28;20239;-62
2022/03/21 11:49:03;;;;;;;13.98;8.20;;;;;;;;;;5004636;28;20581;-60
2022/03/21 11:51:40;;;;;;;12.68;8.50;;;;;;;;;;5002196;28;20307;-62
2022/03/21 11:54:25;;;;;;;17.05;8.10;;;;;;;;;;4994705;28;20269;-61
2022/03/21 11:56:54;;;;;;;27.17;14.80;;;;;;;;;;5003217;28;20211;-61
2022/03/21 11:59:33;;;;;;;12.55;8.10;;;;;;;;;;5002661;28;20227;-62
2022/03/21 12:02:03;;;;;;;15.32;8.68;;;;;;;;;;4999659;28;20612;-61
2022/03/21 12:04:31;;;;;;;14.75;7.70;;;;;;;;;;4997492;28;20284;-61
2022/03/21 12:06:59;;;;;;;15.10;7.72;;;;;;;;;;5009241;28;20207;-61
2022/03/21 12:09:43;;;;;;;17.10;8.63;;;;;;;;;;4995387;28;20714;-62
2022/03/21 12:12:10;;;;;;;13.32;8.45;;;;;;;;;;5004097;28;20211;-62
2022/03/21 12:14:43;;;;;;;13.32;8.27;;;;;;;;;;5008465;28;20207;-61
2022/03/21 12:17:11;;;;;;;15.07;7.88;;;;;;;;;;5006111;28;20207;-62
2022/03/21 12:19:47;;;;;;;14.57;8.20;;;;;;;;;;4995664;28;20227;-62
2022/03/21 12:22:30;;;;;;;13.50;8.25;;;;;;;;;;5000241;28;20227;-62
2022/03/21 12:24:59;;;;;;;15.93;8.93;;;;;;;;;;5001566;28;20208;-62
2022/03/21 12:27:35;;;;;;;10.93;8.50;;;;;;;;;;5002231;28;20246;-64
2022/03/21 12:30:26;;;;;;;13.20;9.00;;;;;;;;;;5000945;28;20266;-62
2022/03/21 12:33:14;;;;;;;13.57;8.57;;;;;;;;;;4991456;28;20214;-63
2022/03/21 12:35:45;;;;;;;14.27;8.20;;;;;;;;;;4974508;28;20211;-62
2022/03/21 12:38:22;;;;;;;16.52;9.45;;;;;;;;;;5000655;28;20239;-62
2022/03/21 12:41:03;;;;;;;17.65;9.32;;;;;;;;;;4994982;28;20225;-61
2022/03/21 12:43:32;;;;;;;13.57;9.23;;;;;;;;;;4998475;28;20199;-64
2022/03/21 12:46:06;;;;;;;14.32;8.00;;;;;;;;;;5001009;28;20216;-62
2022/03/21 12:48:43;;;;;;;16.05;8.60;;;;;;;;;;4998205;28;20326;-63
2022/03/21 12:51:13;;;;;;;12.00;9.35;;;;;;;;;;4999397;28;20211;-63
2022/03/21 12:53:50;;;;;;;12.93;9.70;;;;;;;;;;5016378;28;20618;-62
2022/03/21 12:56:19;;;;;;;14.43;9.48;;;;;;;;;;5005391;28;20245;-62
2022/03/21 12:58:49;;;;;;;14.30;10.13;;;;;;;;;;4996012;28;20219;-60
2022/03/21 13:01:18;;;;;;;13.75;8.60;;;;;;;;;;4991105;28;20763;-63
2022/03/21 13:03:46;;;;;;;11.85;8.63;;;;;;;;;;5003418;28;20290;-63
2022/03/21 13:11:47;;;;;;;15.10;9.55;;;;;;;;;;4995552;28;20286;-60
2022/03/21 13:14:17;;;;;;;15.52;9.63;;;;;;;;;;4997031;28;20220;-60
2022/03/21 13:16:57;;;;;;;15.52;9.45;;;;;;;;;;5007459;28;20263;-62
2022/03/21 13:19:27;;;;;;;14.15;8.75;;;;;;;;;;5002131;28;20309;-62
2022/03/21 13:21:55;;;;;;;17.75;8.32;;;;;;;;;;5001108;28;20243;-60
2022/03/21 13:24:39;;;;;;;16.13;8.82;;;;;;;;;;5000615;28;20222;-61
2022/03/21 13:27:07;;;;;;;13.35;8.55;;;;;;;;;;5005902;28;20207;-61
2022/03/21 13:29:40;;;;;;;14.90;8.55;;;;;;;;;;5010690;28;20694;-62
2022/03/21 13:32:08;;;;;;;13.18;9.23;;;;;;;;;;5003592;28;20265;-62
2022/03/21 13:34:38;;;;;;;14.88;9.27;;;;;;;;;;5006071;28;20588;-62
2022/03/21 13:37:19;;;;;;;12.68;8.77;;;;;;;;;;5013786;28;20633;-62
2022/03/21 13:40:07;;;;;;;15.88;8.40;;;;;;;;;;5004748;28;20227;-60
2022/03/21 13:42:36;;;;;;;14.40;8.30;;;;;;;;;;4998987;28;20742;-61
2022/03/21 13:45:06;;;;;;;14.05;9.48;;;;;;;;;;5003145;28;20204;-60
2022/03/21 13:47:50;;;;;;;17.77;9.45;;;;;;;;;;5014025;28;20211;-61
2022/03/21 13:50:18;;;;;;;12.52;8.48;;;;;;;;;;5005397;28;20223;-62
2022/03/21 13:52:51;;;;;;;12.77;9.30;;;;;;;;;;5003217;28;20229;-60
2022/03/21 13:55:19;;;;;;;13.27;8.52;;;;;;;;;;5005984;28;20658;-61
2022/03/21 13:57:56;;;;;;;14.80;8.60;;;;;;;;;;5005787;28;20207;-61
2022/03/21 14:00:28;;;;;;;18.77;8.18;;;;;;;;;;5007016;28;20270;-61
2022/03/21 14:02:57;;;;;;;11.77;7.80;;;;;;;;;;4986715;28;20839;-62
2022/03/21 14:05:32;;;;;;;16.27;7.80;;;;;;;;;;4987736;28;20204;-62
2022/03/21 14:08:28;;;;;;;18.48;9.07;;;;;;;;;;4988706;28;20246;-60
2022/03/21 14:11:02;;;;;;;16.60;8.68;;;;;;;;;;4983781;28;20223;-62
2022/03/21 14:13:29;;;;;;;17.10;7.97;;;;;;;;;;5000126;28;20210;-61
2022/03/21 14:15:58;;;;;;;11.43;7.57;;;;;;;;;;5002658;28;20214;-61
2022/03/21 14:18:27;;;;;;;16.88;7.85;;;;;;;;;;4995107;28;20720;-63
2022/03/21 14:20:55;;;;;;;14.48;8.10;;;;;;;;;;5015167;28;20831;-62
2022/03/21 14:23:22;;;;;;;18.42;8.82;;;;;;;;;;4989377;28;20572;-62
2022/03/21 14:28:36;;;;;;;12.23;7.85;;;;;;;;;;5002168;28;20214;-62
2022/03/21 14:31:07;;;;;;;11.15;7.20;;;;;;;;;;4993901;28;20206;-61
2022/03/21 14:33:35;;;;;;;9.57;7.13;;;;;;;;;;4999675;28;20199;-61
2022/03/21 14:36:03;;;;;;;11.63;7.20;;;;;;;;;;5002991;28;20226;-61
2022/03/21 14:38:30;;;;;;;13.23;7.32;;;;;;;;;;4998991;28;22129;-60
2022/03/21 14:40:58;;;;;;;11.70;7.03;;;;;;;;;;4978782;28;20223;-60
2022/03/21 14:43:26;;;;;;;12.60;7.13;;;;;;;;;;4999801;28;20700;-61
2022/03/21 14:45:55;;;;;;;9.55;6.95;;;;;;;;;;5001226;28;20219;-62
2022/03/21 14:48:22;;;;;;;11.90;6.88;;;;;;;;;;4989159;28;20251;-62
2022/03/21 14:50:52;;;;;;;15.68;6.22;;;;;;;;;;4999493;28;20847;-63
2022/03/21 14:53:20;;;;;;;12.90;6.28;;;;;;;;;;4996621;28;20211;-61
2022/03/21 14:55:47;;;;;;;11.23;6.72;;;;;;;;;;4998621;28;20678;-62
2022/03/21 14:58:15;;;;;;;13.07;6.63;;;;;;;;;;5000893;28;20684;-63
2022/03/21 15:00:42;;;;;;;23.85;10.48;;;;;;;;;;5005096;28;20649;-61
2022/03/21 15:03:10;;;;;;;16.90;7.57;;;;;;;;;;5001742;28;20231;-63